sensor_id;sensor_type;location;lat;lon;timestamp;temperature;humidity
41884;DHT22;27566;50.930;5.328;2023-06-22T00:00:52;22.80;56.90
41884;DHT22;27566;50.930;5.328;2023-06-22T00:03:19;22.80;56.80
41884;DHT22;27566;50.930;5.328;2023-06-22T00:05:47;22.80;56.80
41884;DHT22;27566;50.930;5.328;2023-06-22T00:08:13;22.80;56.70
41884;DHT22;27566;50.930;5.328;2023-06-22T00:10:39;22.80;56.50
41884;DHT22;27566;50.930;5.328;2023-06-22T00:13:06;22.70;56.40
41884;DHT22;27566;50.930;5.328;2023-06-22T00:15:33;22.70;56.40
41884;DHT22;27566;50.930;5.328;2023-06-22T00:17:58;22.70;56.60
41884;DHT22;27566;50.930;5.328;2023-06-22T00:20:28;22.70;56.40
41884;DHT22;27566;50.930;5.328;2023-06-22T00:22:58;22.60;56.70
41884;DHT22;27566;50.930;5.328;2023-06-22T00:25:24;22.50;56.70
41884;DHT22;27566;50.930;5.328;2023-06-22T00:27:50;22.50;56.90
41884;DHT22;27566;50.930;5.328;2023-06-22T00:30:17;22.50;56.60
41884;DHT22;27566;50.930;5.328;2023-06-22T00:32:43;22.50;57.30
41884;DHT22;27566;50.930;5.328;2023-06-22T00:35:11;22.50;56.90
41884;DHT22;27566;50.930;5.328;2023-06-22T00:37:38;22.60;56.60
41884;DHT22;27566;50.930;5.328;2023-06-22T00:40:11;22.60;56.40
41884;DHT22;27566;50.930;5.328;2023-06-22T00:42:38;22.60;56.30
41884;DHT22;27566;50.930;5.328;2023-06-22T00:45:05;22.60;56.10
41884;DHT22;27566;50.930;5.328;2023-06-22T00:47:32;22.60;56.00
41884;DHT22;27566;50.930;5.328;2023-06-22T00:49:59;22.70;56.00
41884;DHT22;27566;50.930;5.328;2023-06-22T00:52:26;22.60;56.10
41884;DHT22;27566;50.930;5.328;2023-06-22T00:54:56;22.60;56.20
41884;DHT22;27566;50.930;5.328;2023-06-22T00:57:24;22.60;56.30
41884;DHT22;27566;50.930;5.328;2023-06-22T00:59:54;22.70;56.30
41884;DHT22;27566;50.930;5.328;2023-06-22T01:02:20;22.60;56.40
41884;DHT22;27566;50.930;5.328;2023-06-22T01:04:46;22.70;56.30
41884;DHT22;27566;50.930;5.328;2023-06-22T01:07:24;22.70;56.30
41884;DHT22;27566;50.930;5.328;2023-06-22T01:10:21;22.70;56.10
41884;DHT22;27566;50.930;5.328;2023-06-22T01:12:53;22.80;55.90
41884;DHT22;27566;50.930;5.328;2023-06-22T01:15:30;22.70;55.80
41884;DHT22;27566;50.930;5.328;2023-06-22T01:17:57;22.80;55.80
41884;DHT22;27566;50.930;5.328;2023-06-22T01:20:25;22.80;55.60
41884;DHT22;27566;50.930;5.328;2023-06-22T01:26:06;22.70;55.80
41884;DHT22;27566;50.930;5.328;2023-06-22T01:28:46;22.70;56.10
41884;DHT22;27566;50.930;5.328;2023-06-22T01:31:16;22.70;55.90
41884;DHT22;27566;50.930;5.328;2023-06-22T01:33:45;22.60;56.10
41884;DHT22;27566;50.930;5.328;2023-06-22T01:36:12;22.60;56.40
41884;DHT22;27566;50.930;5.328;2023-06-22T01:38:39;22.50;56.70
41884;DHT22;27566;50.930;5.328;2023-06-22T01:41:05;22.50;56.70
41884;DHT22;27566;50.930;5.328;2023-06-22T01:43:32;22.40;56.90
41884;DHT22;27566;50.930;5.328;2023-06-22T01:46:02;22.40;56.90
41884;DHT22;27566;50.930;5.328;2023-06-22T01:48:29;22.40;57.10
41884;DHT22;27566;50.930;5.328;2023-06-22T01:50:55;22.40;57.30
41884;DHT22;27566;50.930;5.328;2023-06-22T01:53:22;22.40;57.40
41884;DHT22;27566;50.930;5.328;2023-06-22T01:55:48;22.40;57.50
41884;DHT22;27566;50.930;5.328;2023-06-22T01:58:14;22.30;57.60
41884;DHT22;27566;50.930;5.328;2023-06-22T02:00:46;22.30;57.70
41884;DHT22;27566;50.930;5.328;2023-06-22T02:03:27;22.30;58.00
41884;DHT22;27566;50.930;5.328;2023-06-22T02:05:59;22.20;58.30
41884;DHT22;27566;50.930;5.328;2023-06-22T02:08:36;22.20;58.60
41884;DHT22;27566;50.930;5.328;2023-06-22T02:11:03;22.10;58.90
41884;DHT22;27566;50.930;5.328;2023-06-22T02:13:31;22.10;59.20
41884;DHT22;27566;50.930;5.328;2023-06-22T02:15:57;22.10;59.50
41884;DHT22;27566;50.930;5.328;2023-06-22T02:18:24;22.10;59.70
41884;DHT22;27566;50.930;5.328;2023-06-22T02:20:51;22.10;59.90
41884;DHT22;27566;50.930;5.328;2023-06-22T02:23:16;22.10;60.00
41884;DHT22;27566;50.930;5.328;2023-06-22T02:25:42;22.10;60.10
41884;DHT22;27566;50.930;5.328;2023-06-22T02:28:10;22.10;60.30
41884;DHT22;27566;50.930;5.328;2023-06-22T02:30:36;22.10;60.50
41884;DHT22;27566;50.930;5.328;2023-06-22T02:33:02;22.10;60.70
41884;DHT22;27566;50.930;5.328;2023-06-22T02:35:29;22.10;61.00
41884;DHT22;27566;50.930;5.328;2023-06-22T02:37:59;22.10;61.20
41884;DHT22;27566;50.930;5.328;2023-06-22T02:40:26;22.10;61.60
41884;DHT22;27566;50.930;5.328;2023-06-22T02:42:52;22.00;61.90
41884;DHT22;27566;50.930;5.328;2023-06-22T02:45:18;22.00;62.20
41884;DHT22;27566;50.930;5.328;2023-06-22T02:47:45;21.90;62.60
41884;DHT22;27566;50.930;5.328;2023-06-22T02:50:11;21.80;62.90
41884;DHT22;27566;50.930;5.328;2023-06-22T02:52:36;21.80;63.30
41884;DHT22;27566;50.930;5.328;2023-06-22T02:55:05;21.80;63.50
41884;DHT22;27566;50.930;5.328;2023-06-22T02:57:33;21.80;63.60
41884;DHT22;27566;50.930;5.328;2023-06-22T02:59:59;21.70;64.20
41884;DHT22;27566;50.930;5.328;2023-06-22T03:02:25;21.70;64.30
41884;DHT22;27566;50.930;5.328;2023-06-22T03:04:52;21.60;64.70
41884;DHT22;27566;50.930;5.328;2023-06-22T03:07:19;21.60;65.00
41884;DHT22;27566;50.930;5.328;2023-06-22T03:09:46;21.50;65.30
41884;DHT22;27566;50.930;5.328;2023-06-22T03:12:11;21.50;65.50
41884;DHT22;27566;50.930;5.328;2023-06-22T03:14:37;21.40;65.70
41884;DHT22;27566;50.930;5.328;2023-06-22T03:17:04;21.40;66.10
41884;DHT22;27566;50.930;5.328;2023-06-22T03:19:31;21.40;66.30
41884;DHT22;27566;50.930;5.328;2023-06-22T03:21:59;21.40;66.70
41884;DHT22;27566;50.930;5.328;2023-06-22T03:24:25;21.30;66.80
41884;DHT22;27566;50.930;5.328;2023-06-22T03:26:51;21.30;67.00
41884;DHT22;27566;50.930;5.328;2023-06-22T03:29:17;21.30;67.10
41884;DHT22;27566;50.930;5.328;2023-06-22T03:31:43;21.30;67.30
41884;DHT22;27566;50.930;5.328;2023-06-22T03:34:08;21.30;67.30
41884;DHT22;27566;50.930;5.328;2023-06-22T03:36:34;21.30;67.60
41884;DHT22;27566;50.930;5.328;2023-06-22T03:39:00;21.30;67.80
41884;DHT22;27566;50.930;5.328;2023-06-22T03:41:26;21.30;67.50
41884;DHT22;27566;50.930;5.328;2023-06-22T03:43:52;21.30;67.50
41884;DHT22;27566;50.930;5.328;2023-06-22T03:46:18;21.40;67.60
41884;DHT22;27566;50.930;5.328;2023-06-22T03:48:45;21.40;67.60
41884;DHT22;27566;50.930;5.328;2023-06-22T03:51:11;21.40;67.40
41884;DHT22;27566;50.930;5.328;2023-06-22T03:53:37;21.50;67.50
41884;DHT22;27566;50.930;5.328;2023-06-22T03:56:03;21.50;67.40
41884;DHT22;27566;50.930;5.328;2023-06-22T03:58:29;21.60;67.20
41884;DHT22;27566;50.930;5.328;2023-06-22T04:00:58;21.60;66.90
41884;DHT22;27566;50.930;5.328;2023-06-22T04:03:25;21.70;66.90
41884;DHT22;27566;50.930;5.328;2023-06-22T04:05:51;21.80;66.70
41884;DHT22;27566;50.930;5.328;2023-06-22T04:08:18;21.90;66.50
41884;DHT22;27566;50.930;5.328;2023-06-22T04:10:44;22.00;66.20
41884;DHT22;27566;50.930;5.328;2023-06-22T04:13:10;22.10;65.80
41884;DHT22;27566;50.930;5.328;2023-06-22T04:15:36;22.20;65.40
41884;DHT22;27566;50.930;5.328;2023-06-22T04:18:02;22.30;65.00
41884;DHT22;27566;50.930;5.328;2023-06-22T04:20:28;22.40;64.80
41884;DHT22;27566;50.930;5.328;2023-06-22T04:22:54;22.50;64.60
41884;DHT22;27566;50.930;5.328;2023-06-22T04:25:20;22.50;64.40
41884;DHT22;27566;50.930;5.328;2023-06-22T04:27:46;22.60;64.10
41884;DHT22;27566;50.930;5.328;2023-06-22T04:30:12;22.60;63.80
41884;DHT22;27566;50.930;5.328;2023-06-22T04:32:40;22.70;63.70
41884;DHT22;27566;50.930;5.328;2023-06-22T04:35:06;22.80;63.70
41884;DHT22;27566;50.930;5.328;2023-06-22T04:37:33;22.80;63.50
41884;DHT22;27566;50.930;5.328;2023-06-22T04:39:59;22.90;63.60
41884;DHT22;27566;50.930;5.328;2023-06-22T04:42:28;22.90;63.60
41884;DHT22;27566;50.930;5.328;2023-06-22T04:44:53;23.00;64.30
41884;DHT22;27566;50.930;5.328;2023-06-22T04:47:19;23.00;64.40
41884;DHT22;27566;50.930;5.328;2023-06-22T04:49:46;22.90;66.40
41884;DHT22;27566;50.930;5.328;2023-06-22T04:52:13;22.70;68.30
41884;DHT22;27566;50.930;5.328;2023-06-22T04:54:46;22.50;70.30
41884;DHT22;27566;50.930;5.328;2023-06-22T04:57:16;22.30;71.30
41884;DHT22;27566;50.930;5.328;2023-06-22T04:59:42;22.20;71.60
41884;DHT22;27566;50.930;5.328;2023-06-22T05:02:08;22.10;72.10
41884;DHT22;27566;50.930;5.328;2023-06-22T05:04:35;22.00;71.40
41884;DHT22;27566;50.930;5.328;2023-06-22T05:07:04;21.90;74.10
41884;DHT22;27566;50.930;5.328;2023-06-22T05:09:30;21.60;75.90
41884;DHT22;27566;50.930;5.328;2023-06-22T05:11:57;21.30;77.70
41884;DHT22;27566;50.930;5.328;2023-06-22T05:14:23;21.00;79.50
41884;DHT22;27566;50.930;5.328;2023-06-22T05:16:49;20.90;80.50
41884;DHT22;27566;50.930;5.328;2023-06-22T05:19:17;20.70;81.60
41884;DHT22;27566;50.930;5.328;2023-06-22T05:21:43;20.50;82.40
41884;DHT22;27566;50.930;5.328;2023-06-22T05:24:09;20.50;83.20
41884;DHT22;27566;50.930;5.328;2023-06-22T05:26:35;20.40;84.10
41884;DHT22;27566;50.930;5.328;2023-06-22T05:29:02;20.40;84.20
41884;DHT22;27566;50.930;5.328;2023-06-22T05:31:29;20.30;84.80
41884;DHT22;27566;50.930;5.328;2023-06-22T05:33:55;20.30;86.30
41884;DHT22;27566;50.930;5.328;2023-06-22T05:36:22;20.30;86.60
41884;DHT22;27566;50.930;5.328;2023-06-22T05:38:51;20.20;87.10
41884;DHT22;27566;50.930;5.328;2023-06-22T05:41:17;20.20;87.40
41884;DHT22;27566;50.930;5.328;2023-06-22T05:43:43;20.20;87.90
41884;DHT22;27566;50.930;5.328;2023-06-22T05:46:09;20.30;87.40
41884;DHT22;27566;50.930;5.328;2023-06-22T05:48:35;20.30;87.40
41884;DHT22;27566;50.930;5.328;2023-06-22T05:51:01;20.30;87.70
41884;DHT22;27566;50.930;5.328;2023-06-22T05:53:27;20.30;88.20
41884;DHT22;27566;50.930;5.328;2023-06-22T05:55:53;20.30;88.40
41884;DHT22;27566;50.930;5.328;2023-06-22T05:58:19;20.40;88.00
41884;DHT22;27566;50.930;5.328;2023-06-22T06:00:44;20.30;87.90
41884;DHT22;27566;50.930;5.328;2023-06-22T06:03:12;20.40;88.30
41884;DHT22;27566;50.930;5.328;2023-06-22T06:05:37;20.50;88.30
41884;DHT22;27566;50.930;5.328;2023-06-22T06:08:05;20.50;88.10
41884;DHT22;27566;50.930;5.328;2023-06-22T06:10:32;20.50;88.70
41884;DHT22;27566;50.930;5.328;2023-06-22T06:12:59;20.60;88.30
41884;DHT22;27566;50.930;5.328;2023-06-22T06:15:28;20.70;88.10
41884;DHT22;27566;50.930;5.328;2023-06-22T06:17:54;20.70;87.80
41884;DHT22;27566;50.930;5.328;2023-06-22T06:20:22;20.80;87.40
41884;DHT22;27566;50.930;5.328;2023-06-22T06:22:49;20.80;87.20
41884;DHT22;27566;50.930;5.328;2023-06-22T06:25:15;20.90;87.10
41884;DHT22;27566;50.930;5.328;2023-06-22T06:27:43;21.00;86.70
41884;DHT22;27566;50.930;5.328;2023-06-22T06:30:10;21.00;86.50
41884;DHT22;27566;50.930;5.328;2023-06-22T06:32:36;21.20;85.70
41884;DHT22;27566;50.930;5.328;2023-06-22T06:35:05;21.30;83.20
41884;DHT22;27566;50.930;5.328;2023-06-22T06:37:31;21.30;83.50
41884;DHT22;27566;50.930;5.328;2023-06-22T06:39:57;21.40;83.00
41884;DHT22;27566;50.930;5.328;2023-06-22T06:42:23;21.30;83.70
41884;DHT22;27566;50.930;5.328;2023-06-22T06:44:50;21.50;81.60
41884;DHT22;27566;50.930;5.328;2023-06-22T06:47:16;21.60;81.70
41884;DHT22;27566;50.930;5.328;2023-06-22T06:49:42;21.60;81.50
41884;DHT22;27566;50.930;5.328;2023-06-22T06:52:08;21.70;80.20
41884;DHT22;27566;50.930;5.328;2023-06-22T06:54:34;21.70;80.70
41884;DHT22;27566;50.930;5.328;2023-06-22T06:57:00;21.80;79.50
41884;DHT22;27566;50.930;5.328;2023-06-22T06:59:28;22.00;80.70
41884;DHT22;27566;50.930;5.328;2023-06-22T07:01:56;22.20;77.40
41884;DHT22;27566;50.930;5.328;2023-06-22T07:04:22;22.40;76.00
41884;DHT22;27566;50.930;5.328;2023-06-22T07:06:47;22.60;74.90
41884;DHT22;27566;50.930;5.328;2023-06-22T07:09:13;22.80;74.70
41884;DHT22;27566;50.930;5.328;2023-06-22T07:11:39;23.20;71.10
41884;DHT22;27566;50.930;5.328;2023-06-22T07:14:05;23.50;70.20
41884;DHT22;27566;50.930;5.328;2023-06-22T07:16:31;23.90;69.60
41884;DHT22;27566;50.930;5.328;2023-06-22T07:18:58;24.20;67.50
41884;DHT22;27566;50.930;5.328;2023-06-22T07:21:24;24.50;66.10
41884;DHT22;27566;50.930;5.328;2023-06-22T07:23:50;24.60;63.60
41884;DHT22;27566;50.930;5.328;2023-06-22T07:26:16;24.70;63.30
41884;DHT22;27566;50.930;5.328;2023-06-22T07:28:42;24.80;63.20
41884;DHT22;27566;50.930;5.328;2023-06-22T07:31:08;25.00;62.00
41884;DHT22;27566;50.930;5.328;2023-06-22T07:33:34;25.20;61.40
41884;DHT22;27566;50.930;5.328;2023-06-22T07:36:00;25.20;61.30
41884;DHT22;27566;50.930;5.328;2023-06-22T07:38:26;25.20;60.90
41884;DHT22;27566;50.930;5.328;2023-06-22T07:40:52;25.20;60.90
41884;DHT22;27566;50.930;5.328;2023-06-22T07:43:19;25.30;60.70
41884;DHT22;27566;50.930;5.328;2023-06-22T07:45:49;25.30;59.70
41884;DHT22;27566;50.930;5.328;2023-06-22T07:48:21;25.40;60.60
41884;DHT22;27566;50.930;5.328;2023-06-22T07:50:48;25.40;60.10
41884;DHT22;27566;50.930;5.328;2023-06-22T07:53:14;25.50;59.70
41884;DHT22;27566;50.930;5.328;2023-06-22T07:55:40;25.40;59.40
41884;DHT22;27566;50.930;5.328;2023-06-22T07:58:06;25.40;60.40
41884;DHT22;27566;50.930;5.328;2023-06-22T08:00:34;25.40;59.90
41884;DHT22;27566;50.930;5.328;2023-06-22T08:03:00;25.40;60.00
41884;DHT22;27566;50.930;5.328;2023-06-22T08:05:29;25.50;61.10
41884;DHT22;27566;50.930;5.328;2023-06-22T08:07:55;25.60;59.90
41884;DHT22;27566;50.930;5.328;2023-06-22T08:10:21;26.00;59.00
41884;DHT22;27566;50.930;5.328;2023-06-22T08:12:47;26.30;58.70
41884;DHT22;27566;50.930;5.328;2023-06-22T08:15:13;26.50;57.70
41884;DHT22;27566;50.930;5.328;2023-06-22T08:17:39;26.80;56.60
41884;DHT22;27566;50.930;5.328;2023-06-22T08:20:06;27.10;56.40
41884;DHT22;27566;50.930;5.328;2023-06-22T08:22:37;27.30;55.00
41884;DHT22;27566;50.930;5.328;2023-06-22T08:25:03;27.40;54.90
41884;DHT22;27566;50.930;5.328;2023-06-22T08:27:30;27.50;54.20
41884;DHT22;27566;50.930;5.328;2023-06-22T08:30:00;27.60;54.30
41884;DHT22;27566;50.930;5.328;2023-06-22T08:32:27;27.60;54.50
41884;DHT22;27566;50.930;5.328;2023-06-22T08:34:57;27.70;54.20
41884;DHT22;27566;50.930;5.328;2023-06-22T08:37:23;28.00;54.10
41884;DHT22;27566;50.930;5.328;2023-06-22T08:39:50;28.10;53.80
41884;DHT22;27566;50.930;5.328;2023-06-22T08:42:16;28.20;53.70
41884;DHT22;27566;50.930;5.328;2023-06-22T08:44:42;28.40;53.20
41884;DHT22;27566;50.930;5.328;2023-06-22T08:47:08;28.40;51.50
41884;DHT22;27566;50.930;5.328;2023-06-22T08:49:34;28.30;52.20
41884;DHT22;27566;50.930;5.328;2023-06-22T08:52:00;28.30;51.90
41884;DHT22;27566;50.930;5.328;2023-06-22T08:54:26;28.20;52.40
41884;DHT22;27566;50.930;5.328;2023-06-22T08:56:52;28.10;52.20
41884;DHT22;27566;50.930;5.328;2023-06-22T08:59:18;28.00;52.40
41884;DHT22;27566;50.930;5.328;2023-06-22T09:01:44;27.80;52.80
41884;DHT22;27566;50.930;5.328;2023-06-22T09:04:11;27.60;53.20
41884;DHT22;27566;50.930;5.328;2023-06-22T09:06:37;27.30;54.00
41884;DHT22;27566;50.930;5.328;2023-06-22T09:09:10;27.00;54.50
41884;DHT22;27566;50.930;5.328;2023-06-22T09:11:36;26.80;55.40
41884;DHT22;27566;50.930;5.328;2023-06-22T09:14:02;26.60;56.10
41884;DHT22;27566;50.930;5.328;2023-06-22T09:16:29;26.50;56.40
41884;DHT22;27566;50.930;5.328;2023-06-22T09:18:55;26.50;56.50
41884;DHT22;27566;50.930;5.328;2023-06-22T09:21:25;26.50;56.70
41884;DHT22;27566;50.930;5.328;2023-06-22T09:23:51;26.50;57.00
41884;DHT22;27566;50.930;5.328;2023-06-22T09:26:18;26.50;57.00
41884;DHT22;27566;50.930;5.328;2023-06-22T09:28:44;26.40;57.30
41884;DHT22;27566;50.930;5.328;2023-06-22T09:31:10;26.30;57.60
41884;DHT22;27566;50.930;5.328;2023-06-22T09:33:37;26.20;58.00
41884;DHT22;27566;50.930;5.328;2023-06-22T09:36:06;26.20;58.30
41884;DHT22;27566;50.930;5.328;2023-06-22T09:38:41;26.30;58.20
41884;DHT22;27566;50.930;5.328;2023-06-22T09:41:07;26.50;58.30
41884;DHT22;27566;50.930;5.328;2023-06-22T09:43:33;26.50;57.60
41884;DHT22;27566;50.930;5.328;2023-06-22T09:46:02;26.50;57.70
41884;DHT22;27566;50.930;5.328;2023-06-22T09:48:29;26.50;57.70
41884;DHT22;27566;50.930;5.328;2023-06-22T09:50:56;26.30;58.10
41884;DHT22;27566;50.930;5.328;2023-06-22T09:53:22;26.30;59.30
41884;DHT22;27566;50.930;5.328;2023-06-22T09:55:47;26.30;61.80
41884;DHT22;27566;50.930;5.328;2023-06-22T09:58:13;26.30;62.10
41884;DHT22;27566;50.930;5.328;2023-06-22T10:00:39;26.20;63.90
41884;DHT22;27566;50.930;5.328;2023-06-22T10:03:08;25.90;66.60
41884;DHT22;27566;50.930;5.328;2023-06-22T10:05:35;25.30;68.60
41884;DHT22;27566;50.930;5.328;2023-06-22T10:08:01;24.80;71.40
41884;DHT22;27566;50.930;5.328;2023-06-22T10:10:27;24.40;73.50
41884;DHT22;27566;50.930;5.328;2023-06-22T10:13:07;24.00;75.90
41884;DHT22;27566;50.930;5.328;2023-06-22T10:15:35;23.70;78.00
41884;DHT22;27566;50.930;5.328;2023-06-22T10:18:01;23.50;79.50
41884;DHT22;27566;50.930;5.328;2023-06-22T10:20:27;23.10;80.60
41884;DHT22;27566;50.930;5.328;2023-06-22T10:22:53;22.80;82.20
41884;DHT22;27566;50.930;5.328;2023-06-22T10:25:20;22.70;83.20
41884;DHT22;27566;50.930;5.328;2023-06-22T10:27:45;22.50;84.40
41884;DHT22;27566;50.930;5.328;2023-06-22T10:30:12;22.30;86.30
41884;DHT22;27566;50.930;5.328;2023-06-22T10:32:39;22.20;86.90
41884;DHT22;27566;50.930;5.328;2023-06-22T10:35:06;22.10;87.30
41884;DHT22;27566;50.930;5.328;2023-06-22T10:37:32;21.90;87.50
41884;DHT22;27566;50.930;5.328;2023-06-22T10:39:58;21.80;89.10
41884;DHT22;27566;50.930;5.328;2023-06-22T10:42:24;21.70;89.50
41884;DHT22;27566;50.930;5.328;2023-06-22T10:44:50;21.60;90.10
41884;DHT22;27566;50.930;5.328;2023-06-22T10:47:16;21.60;90.50
41884;DHT22;27566;50.930;5.328;2023-06-22T10:49:42;21.50;90.80
41884;DHT22;27566;50.930;5.328;2023-06-22T10:52:09;21.50;91.00
41884;DHT22;27566;50.930;5.328;2023-06-22T10:54:35;21.60;91.10
41884;DHT22;27566;50.930;5.328;2023-06-22T10:57:02;21.70;91.20
41884;DHT22;27566;50.930;5.328;2023-06-22T10:59:28;21.80;91.40
41884;DHT22;27566;50.930;5.328;2023-06-22T11:01:58;21.90;91.50
41884;DHT22;27566;50.930;5.328;2023-06-22T11:04:24;22.00;91.80
41884;DHT22;27566;50.930;5.328;2023-06-22T11:06:51;22.10;91.70
41884;DHT22;27566;50.930;5.328;2023-06-22T11:09:17;22.00;91.60
41884;DHT22;27566;50.930;5.328;2023-06-22T11:11:51;22.00;91.40
41884;DHT22;27566;50.930;5.328;2023-06-22T11:14:20;22.00;91.60
41884;DHT22;27566;50.930;5.328;2023-06-22T11:16:47;21.90;91.60
41884;DHT22;27566;50.930;5.328;2023-06-22T11:19:13;22.00;91.90
41884;DHT22;27566;50.930;5.328;2023-06-22T11:21:39;22.10;92.30
41884;DHT22;27566;50.930;5.328;2023-06-22T11:24:05;22.30;92.10
41884;DHT22;27566;50.930;5.328;2023-06-22T11:26:31;22.40;91.70
41884;DHT22;27566;50.930;5.328;2023-06-22T11:28:58;22.60;91.40
41884;DHT22;27566;50.930;5.328;2023-06-22T11:31:24;22.60;91.50
41884;DHT22;27566;50.930;5.328;2023-06-22T11:33:50;22.80;91.80
41884;DHT22;27566;50.930;5.328;2023-06-22T11:36:16;22.90;91.60
41884;DHT22;27566;50.930;5.328;2023-06-22T11:38:43;23.00;90.90
41884;DHT22;27566;50.930;5.328;2023-06-22T11:41:09;23.10;91.30
41884;DHT22;27566;50.930;5.328;2023-06-22T11:43:36;23.20;91.10
41884;DHT22;27566;50.930;5.328;2023-06-22T11:46:05;23.30;90.50
41884;DHT22;27566;50.930;5.328;2023-06-22T11:48:31;23.20;90.40
41884;DHT22;27566;50.930;5.328;2023-06-22T11:50:57;23.00;89.70
41884;DHT22;27566;50.930;5.328;2023-06-22T11:53:27;22.80;88.50
41884;DHT22;27566;50.930;5.328;2023-06-22T11:55:53;22.50;90.00
41884;DHT22;27566;50.930;5.328;2023-06-22T11:58:21;22.40;89.60
41884;DHT22;27566;50.930;5.328;2023-06-22T12:00:47;22.30;89.70
41884;DHT22;27566;50.930;5.328;2023-06-22T12:03:13;22.20;90.00
41884;DHT22;27566;50.930;5.328;2023-06-22T12:05:40;22.10;90.30
41884;DHT22;27566;50.930;5.328;2023-06-22T12:08:06;21.90;90.20
41884;DHT22;27566;50.930;5.328;2023-06-22T12:10:32;21.60;90.70
41884;DHT22;27566;50.930;5.328;2023-06-22T12:12:58;21.50;91.00
41884;DHT22;27566;50.930;5.328;2023-06-22T12:15:25;21.40;91.40
41884;DHT22;27566;50.930;5.328;2023-06-22T12:17:51;21.30;91.60
41884;DHT22;27566;50.930;5.328;2023-06-22T12:20:17;21.20;91.80
41884;DHT22;27566;50.930;5.328;2023-06-22T12:22:44;21.10;92.10
41884;DHT22;27566;50.930;5.328;2023-06-22T12:25:10;21.10;92.10
41884;DHT22;27566;50.930;5.328;2023-06-22T12:27:36;21.10;92.30
41884;DHT22;27566;50.930;5.328;2023-06-22T12:30:03;21.10;92.30
41884;DHT22;27566;50.930;5.328;2023-06-22T12:32:29;21.00;92.20
41884;DHT22;27566;50.930;5.328;2023-06-22T12:34:56;21.10;92.30
41884;DHT22;27566;50.930;5.328;2023-06-22T12:37:23;21.10;92.30
41884;DHT22;27566;50.930;5.328;2023-06-22T12:39:49;21.00;92.10
41884;DHT22;27566;50.930;5.328;2023-06-22T12:42:16;21.00;92.20
41884;DHT22;27566;50.930;5.328;2023-06-22T12:44:42;21.00;92.20
41884;DHT22;27566;50.930;5.328;2023-06-22T12:47:08;21.00;92.20
41884;DHT22;27566;50.930;5.328;2023-06-22T12:49:35;20.90;92.20
41884;DHT22;27566;50.930;5.328;2023-06-22T12:52:02;20.90;92.30
41884;DHT22;27566;50.930;5.328;2023-06-22T12:54:28;20.80;92.50
41884;DHT22;27566;50.930;5.328;2023-06-22T12:56:55;20.80;92.50
41884;DHT22;27566;50.930;5.328;2023-06-22T12:59:21;20.70;92.60
41884;DHT22;27566;50.930;5.328;2023-06-22T13:01:47;20.70;92.60
41884;DHT22;27566;50.930;5.328;2023-06-22T13:04:13;20.70;92.50
41884;DHT22;27566;50.930;5.328;2023-06-22T13:06:45;20.70;92.50
41884;DHT22;27566;50.930;5.328;2023-06-22T13:09:14;20.60;92.50
41884;DHT22;27566;50.930;5.328;2023-06-22T13:11:40;20.60;92.40
41884;DHT22;27566;50.930;5.328;2023-06-22T13:14:06;20.60;92.60
41884;DHT22;27566;50.930;5.328;2023-06-22T13:16:32;20.60;92.50
41884;DHT22;27566;50.930;5.328;2023-06-22T13:18:58;20.50;92.80
41884;DHT22;27566;50.930;5.328;2023-06-22T13:21:24;20.50;92.80
41884;DHT22;27566;50.930;5.328;2023-06-22T13:23:50;20.40;92.90
41884;DHT22;27566;50.930;5.328;2023-06-22T13:26:16;20.40;92.90
41884;DHT22;27566;50.930;5.328;2023-06-22T13:28:42;20.30;93.00
41884;DHT22;27566;50.930;5.328;2023-06-22T13:31:08;20.30;93.30
41884;DHT22;27566;50.930;5.328;2023-06-22T13:33:34;20.30;93.10
41884;DHT22;27566;50.930;5.328;2023-06-22T13:36:00;20.20;92.80
41884;DHT22;27566;50.930;5.328;2023-06-22T13:38:26;20.20;93.00
41884;DHT22;27566;50.930;5.328;2023-06-22T13:40:52;20.20;93.00
41884;DHT22;27566;50.930;5.328;2023-06-22T13:43:20;20.10;93.00
41884;DHT22;27566;50.930;5.328;2023-06-22T13:45:46;20.00;93.00
41884;DHT22;27566;50.930;5.328;2023-06-22T13:48:12;20.00;93.10
41884;DHT22;27566;50.930;5.328;2023-06-22T13:50:38;19.90;93.20
41884;DHT22;27566;50.930;5.328;2023-06-22T13:53:04;19.90;93.40
41884;DHT22;27566;50.930;5.328;2023-06-22T13:55:30;19.90;93.40
41884;DHT22;27566;50.930;5.328;2023-06-22T13:57:56;19.90;93.50
41884;DHT22;27566;50.930;5.328;2023-06-22T14:00:22;19.90;93.60
41884;DHT22;27566;50.930;5.328;2023-06-22T14:02:48;19.90;93.60
41884;DHT22;27566;50.930;5.328;2023-06-22T14:05:14;19.90;93.70
41884;DHT22;27566;50.930;5.328;2023-06-22T14:07:40;19.90;93.60
41884;DHT22;27566;50.930;5.328;2023-06-22T14:10:07;19.90;93.60
41884;DHT22;27566;50.930;5.328;2023-06-22T14:12:33;19.80;93.60
41884;DHT22;27566;50.930;5.328;2023-06-22T14:14:59;19.80;93.60
41884;DHT22;27566;50.930;5.328;2023-06-22T14:17:25;19.80;93.60
41884;DHT22;27566;50.930;5.328;2023-06-22T14:19:52;19.80;93.60
41884;DHT22;27566;50.930;5.328;2023-06-22T14:22:20;19.80;93.60
41884;DHT22;27566;50.930;5.328;2023-06-22T14:24:47;19.70;93.70
41884;DHT22;27566;50.930;5.328;2023-06-22T14:27:13;19.70;93.50
41884;DHT22;27566;50.930;5.328;2023-06-22T14:29:39;19.70;93.50
41884;DHT22;27566;50.930;5.328;2023-06-22T14:32:05;19.70;93.50
41884;DHT22;27566;50.930;5.328;2023-06-22T14:34:32;19.60;93.50
41884;DHT22;27566;50.930;5.328;2023-06-22T14:37:02;19.70;93.60
41884;DHT22;27566;50.930;5.328;2023-06-22T14:39:28;19.60;93.50
41884;DHT22;27566;50.930;5.328;2023-06-22T14:41:54;19.60;93.60
41884;DHT22;27566;50.930;5.328;2023-06-22T14:44:20;19.60;93.60
41884;DHT22;27566;50.930;5.328;2023-06-22T14:46:46;19.50;93.60
41884;DHT22;27566;50.930;5.328;2023-06-22T14:49:12;19.50;93.70
41884;DHT22;27566;50.930;5.328;2023-06-22T14:51:38;19.50;93.60
41884;DHT22;27566;50.930;5.328;2023-06-22T14:54:04;19.50;93.70
41884;DHT22;27566;50.930;5.328;2023-06-22T14:56:30;19.40;93.60
41884;DHT22;27566;50.930;5.328;2023-06-22T14:58:56;19.40;93.70
41884;DHT22;27566;50.930;5.328;2023-06-22T15:01:22;19.40;93.70
41884;DHT22;27566;50.930;5.328;2023-06-22T15:03:49;19.30;93.80
41884;DHT22;27566;50.930;5.328;2023-06-22T15:06:15;19.30;93.90
41884;DHT22;27566;50.930;5.328;2023-06-22T15:08:41;19.40;94.10
41884;DHT22;27566;50.930;5.328;2023-06-22T15:11:08;19.30;94.00
41884;DHT22;27566;50.930;5.328;2023-06-22T15:13:34;19.40;93.90
41884;DHT22;27566;50.930;5.328;2023-06-22T15:16:03;19.40;93.90
41884;DHT22;27566;50.930;5.328;2023-06-22T15:18:29;19.30;93.90
41884;DHT22;27566;50.930;5.328;2023-06-22T15:20:55;19.30;93.90
41884;DHT22;27566;50.930;5.328;2023-06-22T15:23:21;19.30;94.00
41884;DHT22;27566;50.930;5.328;2023-06-22T15:25:47;19.30;94.00
41884;DHT22;27566;50.930;5.328;2023-06-22T15:28:13;19.30;93.90
41884;DHT22;27566;50.930;5.328;2023-06-22T15:30:39;19.20;94.00